sensor_id;sensor_type;location;lat;lon;timestamp;temperature;humidity
23691;DHT22;43867;50.836;4.364;2022-08-14T00:00:12;24.00;44.30
23691;DHT22;43867;50.836;4.364;2022-08-14T00:02:39;23.90;44.50
23691;DHT22;43867;50.836;4.364;2022-08-14T00:05:06;23.70;44.70
23691;DHT22;43867;50.836;4.364;2022-08-14T00:07:32;23.70;45.00
23691;DHT22;43867;50.836;4.364;2022-08-14T00:10:00;23.70;44.90
23691;DHT22;43867;50.836;4.364;2022-08-14T00:12:25;23.70;44.80
23691;DHT22;43867;50.836;4.364;2022-08-14T00:14:51;23.60;44.90
23691;DHT22;43867;50.836;4.364;2022-08-14T00:17:17;23.60;44.80
23691;DHT22;43867;50.836;4.364;2022-08-14T00:19:43;23.70;44.80
23691;DHT22;43867;50.836;4.364;2022-08-14T00:22:08;23.70;44.80
23691;DHT22;43867;50.836;4.364;2022-08-14T00:24:34;23.60;44.90
23691;DHT22;43867;50.836;4.364;2022-08-14T00:26:59;23.50;45.10
23691;DHT22;43867;50.836;4.364;2022-08-14T00:29:25;23.40;45.40
23691;DHT22;43867;50.836;4.364;2022-08-14T00:31:50;23.40;45.60
23691;DHT22;43867;50.836;4.364;2022-08-14T00:34:16;23.30;45.90
23691;DHT22;43867;50.836;4.364;2022-08-14T00:36:41;23.20;46.00
23691;DHT22;43867;50.836;4.364;2022-08-14T00:39:07;23.10;46.20
23691;DHT22;43867;50.836;4.364;2022-08-14T00:41:33;23.00;46.20
23691;DHT22;43867;50.836;4.364;2022-08-14T00:43:58;22.90;46.40
23691;DHT22;43867;50.836;4.364;2022-08-14T00:46:24;22.90;46.30
23691;DHT22;43867;50.836;4.364;2022-08-14T00:48:49;22.90;46.30
23691;DHT22;43867;50.836;4.364;2022-08-14T00:51:15;23.00;46.10
23691;DHT22;43867;50.836;4.364;2022-08-14T00:53:40;23.20;45.50
23691;DHT22;43867;50.836;4.364;2022-08-14T00:56:07;23.20;45.20
23691;DHT22;43867;50.836;4.364;2022-08-14T00:58:33;23.30;45.10
23691;DHT22;43867;50.836;4.364;2022-08-14T01:01:03;23.40;44.70
23691;DHT22;43867;50.836;4.364;2022-08-14T01:03:30;23.40;44.60
23691;DHT22;43867;50.836;4.364;2022-08-14T01:05:57;23.50;44.40
23691;DHT22;43867;50.836;4.364;2022-08-14T01:08:24;23.50;44.30
23691;DHT22;43867;50.836;4.364;2022-08-14T01:10:50;23.40;44.50
23691;DHT22;43867;50.836;4.364;2022-08-14T01:13:17;23.50;44.40
23691;DHT22;43867;50.836;4.364;2022-08-14T01:15:43;23.60;44.10
23691;DHT22;43867;50.836;4.364;2022-08-14T01:18:10;23.40;44.30
23691;DHT22;43867;50.836;4.364;2022-08-14T01:20:55;23.40;44.30
23691;DHT22;43867;50.836;4.364;2022-08-14T01:23:41;23.20;44.60
23691;DHT22;43867;50.836;4.364;2022-08-14T01:26:07;23.20;45.30
23691;DHT22;43867;50.836;4.364;2022-08-14T01:28:33;23.20;44.80
23691;DHT22;43867;50.836;4.364;2022-08-14T01:31:12;23.20;44.80
23691;DHT22;43867;50.836;4.364;2022-08-14T01:33:40;23.00;44.90
23691;DHT22;43867;50.836;4.364;2022-08-14T01:36:06;23.10;45.10
23691;DHT22;43867;50.836;4.364;2022-08-14T01:38:32;23.10;44.90
23691;DHT22;43867;50.836;4.364;2022-08-14T01:41:06;23.00;45.00
23691;DHT22;43867;50.836;4.364;2022-08-14T01:43:32;23.00;45.30
23691;DHT22;43867;50.836;4.364;2022-08-14T01:46:03;22.90;45.20
23691;DHT22;43867;50.836;4.364;2022-08-14T01:48:30;22.90;45.30
23691;DHT22;43867;50.836;4.364;2022-08-14T01:51:00;22.80;45.40
23691;DHT22;43867;50.836;4.364;2022-08-14T01:53:27;22.80;45.70
23691;DHT22;43867;50.836;4.364;2022-08-14T01:55:55;22.70;45.70
23691;DHT22;43867;50.836;4.364;2022-08-14T01:58:23;22.70;45.70
23691;DHT22;43867;50.836;4.364;2022-08-14T02:00:52;22.70;45.90
23691;DHT22;43867;50.836;4.364;2022-08-14T02:03:19;22.60;45.90
23691;DHT22;43867;50.836;4.364;2022-08-14T02:05:44;22.60;46.00
23691;DHT22;43867;50.836;4.364;2022-08-14T02:08:10;22.60;46.10
23691;DHT22;43867;50.836;4.364;2022-08-14T02:10:37;22.60;46.20
23691;DHT22;43867;50.836;4.364;2022-08-14T02:13:03;22.50;46.10
23691;DHT22;43867;50.836;4.364;2022-08-14T02:15:32;22.50;46.10
23691;DHT22;43867;50.836;4.364;2022-08-14T02:17:58;22.70;45.90
23691;DHT22;43867;50.836;4.364;2022-08-14T02:20:31;22.70;45.60
23691;DHT22;43867;50.836;4.364;2022-08-14T02:23:01;22.70;45.60
23691;DHT22;43867;50.836;4.364;2022-08-14T02:25:27;22.50;45.70
23691;DHT22;43867;50.836;4.364;2022-08-14T02:27:54;22.50;45.90
23691;DHT22;43867;50.836;4.364;2022-08-14T02:30:22;22.50;45.90
23691;DHT22;43867;50.836;4.364;2022-08-14T02:32:50;22.40;46.10
23691;DHT22;43867;50.836;4.364;2022-08-14T02:35:15;22.40;46.40
23691;DHT22;43867;50.836;4.364;2022-08-14T02:37:43;22.30;46.50
23691;DHT22;43867;50.836;4.364;2022-08-14T02:40:09;22.20;46.60
23691;DHT22;43867;50.836;4.364;2022-08-14T02:42:37;22.20;46.80
23691;DHT22;43867;50.836;4.364;2022-08-14T02:45:03;22.20;47.00
23691;DHT22;43867;50.836;4.364;2022-08-14T02:47:29;22.20;47.10
23691;DHT22;43867;50.836;4.364;2022-08-14T02:49:56;22.20;47.00
23691;DHT22;43867;50.836;4.364;2022-08-14T02:52:22;22.10;46.90
23691;DHT22;43867;50.836;4.364;2022-08-14T02:54:48;22.10;46.90
23691;DHT22;43867;50.836;4.364;2022-08-14T02:57:14;22.10;47.00
23691;DHT22;43867;50.836;4.364;2022-08-14T02:59:40;22.10;47.00
23691;DHT22;43867;50.836;4.364;2022-08-14T03:02:06;22.00;47.00
23691;DHT22;43867;50.836;4.364;2022-08-14T03:04:33;22.10;47.10
23691;DHT22;43867;50.836;4.364;2022-08-14T03:06:58;22.20;46.80
23691;DHT22;43867;50.836;4.364;2022-08-14T03:09:24;22.20;46.50
23691;DHT22;43867;50.836;4.364;2022-08-14T03:11:49;22.20;46.70
23691;DHT22;43867;50.836;4.364;2022-08-14T03:14:16;22.20;46.60
23691;DHT22;43867;50.836;4.364;2022-08-14T03:16:42;22.30;46.60
23691;DHT22;43867;50.836;4.364;2022-08-14T03:19:09;22.30;46.60
23691;DHT22;43867;50.836;4.364;2022-08-14T03:21:35;22.30;46.30
23691;DHT22;43867;50.836;4.364;2022-08-14T03:24:01;22.40;46.30
23691;DHT22;43867;50.836;4.364;2022-08-14T03:26:32;22.40;46.20
23691;DHT22;43867;50.836;4.364;2022-08-14T03:28:58;22.40;46.20
23691;DHT22;43867;50.836;4.364;2022-08-14T03:31:25;22.40;46.10
23691;DHT22;43867;50.836;4.364;2022-08-14T03:33:51;22.40;46.10
23691;DHT22;43867;50.836;4.364;2022-08-14T03:36:17;22.30;46.10
23691;DHT22;43867;50.836;4.364;2022-08-14T03:38:44;22.30;46.30
23691;DHT22;43867;50.836;4.364;2022-08-14T03:41:11;22.30;46.20
23691;DHT22;43867;50.836;4.364;2022-08-14T03:44:02;22.40;46.10
23691;DHT22;43867;50.836;4.364;2022-08-14T03:46:27;22.40;46.10
23691;DHT22;43867;50.836;4.364;2022-08-14T03:48:54;22.30;46.40
23691;DHT22;43867;50.836;4.364;2022-08-14T03:51:20;22.20;46.50
23691;DHT22;43867;50.836;4.364;2022-08-14T03:53:46;22.20;46.60
23691;DHT22;43867;50.836;4.364;2022-08-14T03:56:13;22.30;46.40
23691;DHT22;43867;50.836;4.364;2022-08-14T03:58:49;22.50;45.90
23691;DHT22;43867;50.836;4.364;2022-08-14T04:01:15;22.80;45.50
23691;DHT22;43867;50.836;4.364;2022-08-14T04:03:44;22.70;45.40
23691;DHT22;43867;50.836;4.364;2022-08-14T04:06:09;22.70;45.60
23691;DHT22;43867;50.836;4.364;2022-08-14T04:08:39;22.50;45.90
23691;DHT22;43867;50.836;4.364;2022-08-14T04:11:05;22.30;46.10
23691;DHT22;43867;50.836;4.364;2022-08-14T04:13:31;22.20;46.30
23691;DHT22;43867;50.836;4.364;2022-08-14T04:15:58;22.10;46.50
23691;DHT22;43867;50.836;4.364;2022-08-14T04:18:24;22.20;46.30
23691;DHT22;43867;50.836;4.364;2022-08-14T04:20:50;22.30;46.30
23691;DHT22;43867;50.836;4.364;2022-08-14T04:23:16;22.40;46.00
23691;DHT22;43867;50.836;4.364;2022-08-14T04:25:41;22.50;45.70
23691;DHT22;43867;50.836;4.364;2022-08-14T04:28:08;22.40;45.70
23691;DHT22;43867;50.836;4.364;2022-08-14T04:30:35;22.40;45.80
23691;DHT22;43867;50.836;4.364;2022-08-14T04:33:06;22.40;45.80
23691;DHT22;43867;50.836;4.364;2022-08-14T04:35:37;22.20;46.20
23691;DHT22;43867;50.836;4.364;2022-08-14T04:38:06;22.30;46.20
23691;DHT22;43867;50.836;4.364;2022-08-14T04:40:50;22.10;46.30
23691;DHT22;43867;50.836;4.364;2022-08-14T04:43:35;22.10;46.50
23691;DHT22;43867;50.836;4.364;2022-08-14T04:46:02;21.90;46.60
23691;DHT22;43867;50.836;4.364;2022-08-14T04:48:28;21.90;46.80
23691;DHT22;43867;50.836;4.364;2022-08-14T04:50:54;21.90;46.90
23691;DHT22;43867;50.836;4.364;2022-08-14T04:53:23;21.70;47.10
23691;DHT22;43867;50.836;4.364;2022-08-14T04:55:49;21.70;47.40
23691;DHT22;43867;50.836;4.364;2022-08-14T04:58:16;21.60;47.70
23691;DHT22;43867;50.836;4.364;2022-08-14T05:00:45;21.60;48.00
23691;DHT22;43867;50.836;4.364;2022-08-14T05:03:19;21.50;47.90
23691;DHT22;43867;50.836;4.364;2022-08-14T05:05:48;21.70;48.20
23691;DHT22;43867;50.836;4.364;2022-08-14T05:08:16;21.70;47.70
23691;DHT22;43867;50.836;4.364;2022-08-14T05:10:42;21.70;48.20
23691;DHT22;43867;50.836;4.364;2022-08-14T05:13:08;21.70;47.70
23691;DHT22;43867;50.836;4.364;2022-08-14T05:15:38;21.80;47.60
23691;DHT22;43867;50.836;4.364;2022-08-14T05:18:14;22.20;46.80
23691;DHT22;43867;50.836;4.364;2022-08-14T05:20:44;22.30;46.80
23691;DHT22;43867;50.836;4.364;2022-08-14T05:23:11;22.10;46.90
23691;DHT22;43867;50.836;4.364;2022-08-14T05:25:37;22.20;46.90
23691;DHT22;43867;50.836;4.364;2022-08-14T05:28:06;22.30;46.60
23691;DHT22;43867;50.836;4.364;2022-08-14T05:30:31;21.90;47.10
23691;DHT22;43867;50.836;4.364;2022-08-14T05:32:58;21.70;47.70
23691;DHT22;43867;50.836;4.364;2022-08-14T05:35:25;21.80;48.00
23691;DHT22;43867;50.836;4.364;2022-08-14T05:37:51;21.90;47.90
23691;DHT22;43867;50.836;4.364;2022-08-14T05:40:17;21.80;48.00
23691;DHT22;43867;50.836;4.364;2022-08-14T05:42:42;21.70;48.20
23691;DHT22;43867;50.836;4.364;2022-08-14T05:45:08;21.70;48.20
23691;DHT22;43867;50.836;4.364;2022-08-14T05:47:37;21.60;48.70
23691;DHT22;43867;50.836;4.364;2022-08-14T05:50:03;21.60;48.70
23691;DHT22;43867;50.836;4.364;2022-08-14T05:52:28;21.70;48.90
23691;DHT22;43867;50.836;4.364;2022-08-14T05:54:55;21.60;49.00
23691;DHT22;43867;50.836;4.364;2022-08-14T05:57:22;21.60;49.10
23691;DHT22;43867;50.836;4.364;2022-08-14T05:59:48;21.70;49.00
23691;DHT22;43867;50.836;4.364;2022-08-14T06:02:14;21.80;49.20
23691;DHT22;43867;50.836;4.364;2022-08-14T06:04:39;21.90;49.00
23691;DHT22;43867;50.836;4.364;2022-08-14T06:07:15;22.10;48.60
23691;DHT22;43867;50.836;4.364;2022-08-14T06:09:40;22.40;47.90
23691;DHT22;43867;50.836;4.364;2022-08-14T06:12:06;22.60;47.50
23691;DHT22;43867;50.836;4.364;2022-08-14T06:14:32;22.60;47.50
23691;DHT22;43867;50.836;4.364;2022-08-14T06:16:57;22.70;47.30
23691;DHT22;43867;50.836;4.364;2022-08-14T06:19:23;22.90;46.80
23691;DHT22;43867;50.836;4.364;2022-08-14T06:21:49;23.10;46.60
23691;DHT22;43867;50.836;4.364;2022-08-14T06:24:14;23.40;46.30
23691;DHT22;43867;50.836;4.364;2022-08-14T06:26:40;23.80;45.30
23691;DHT22;43867;50.836;4.364;2022-08-14T06:29:05;24.20;44.70
23691;DHT22;43867;50.836;4.364;2022-08-14T06:31:31;24.40;44.30
23691;DHT22;43867;50.836;4.364;2022-08-14T06:33:56;24.60;44.20
23691;DHT22;43867;50.836;4.364;2022-08-14T06:36:22;24.90;43.40
23691;DHT22;43867;50.836;4.364;2022-08-14T06:38:49;25.10;43.40
23691;DHT22;43867;50.836;4.364;2022-08-14T06:41:15;25.40;42.70
23691;DHT22;43867;50.836;4.364;2022-08-14T06:43:40;25.70;42.80
23691;DHT22;43867;50.836;4.364;2022-08-14T06:46:06;25.80;42.00
23691;DHT22;43867;50.836;4.364;2022-08-14T06:48:33;25.90;42.30
23691;DHT22;43867;50.836;4.364;2022-08-14T06:50:59;26.00;41.90
23691;DHT22;43867;50.836;4.364;2022-08-14T06:53:24;26.40;41.70
23691;DHT22;43867;50.836;4.364;2022-08-14T06:55:50;26.80;41.20
23691;DHT22;43867;50.836;4.364;2022-08-14T06:58:16;27.20;40.60
23691;DHT22;43867;50.836;4.364;2022-08-14T07:00:44;27.40;40.30
23691;DHT22;43867;50.836;4.364;2022-08-14T07:03:29;27.60;39.80
23691;DHT22;43867;50.836;4.364;2022-08-14T07:06:14;27.80;40.10
23691;DHT22;43867;50.836;4.364;2022-08-14T07:08:40;27.90;39.50
23691;DHT22;43867;50.836;4.364;2022-08-14T07:11:06;28.00;39.30
23691;DHT22;43867;50.836;4.364;2022-08-14T07:13:32;28.30;39.70
23691;DHT22;43867;50.836;4.364;2022-08-14T07:15:58;28.60;39.10
23691;DHT22;43867;50.836;4.364;2022-08-14T07:18:28;28.70;38.40
23691;DHT22;43867;50.836;4.364;2022-08-14T07:20:54;28.60;38.50
23691;DHT22;43867;50.836;4.364;2022-08-14T07:23:20;28.30;38.50
23691;DHT22;43867;50.836;4.364;2022-08-14T07:25:48;28.50;38.80
23691;DHT22;43867;50.836;4.364;2022-08-14T07:28:15;28.70;38.80
23691;DHT22;43867;50.836;4.364;2022-08-14T07:30:40;29.00;38.30
23691;DHT22;43867;50.836;4.364;2022-08-14T07:33:06;29.00;38.40
23691;DHT22;43867;50.836;4.364;2022-08-14T07:35:32;29.20;37.80
23691;DHT22;43867;50.836;4.364;2022-08-14T07:37:58;29.30;37.60
23691;DHT22;43867;50.836;4.364;2022-08-14T07:40:23;29.10;38.10
23691;DHT22;43867;50.836;4.364;2022-08-14T07:42:49;29.40;37.90
23691;DHT22;43867;50.836;4.364;2022-08-14T07:45:15;29.90;37.80
23691;DHT22;43867;50.836;4.364;2022-08-14T07:47:41;30.40;37.60
23691;DHT22;43867;50.836;4.364;2022-08-14T07:50:11;30.40;36.80
23691;DHT22;43867;50.836;4.364;2022-08-14T07:52:37;30.70;36.30
23691;DHT22;43867;50.836;4.364;2022-08-14T07:55:03;30.50;35.90
23691;DHT22;43867;50.836;4.364;2022-08-14T07:57:29;30.70;36.60
23691;DHT22;43867;50.836;4.364;2022-08-14T07:59:54;31.30;36.00
23691;DHT22;43867;50.836;4.364;2022-08-14T08:02:20;31.40;35.90
23691;DHT22;43867;50.836;4.364;2022-08-14T08:04:47;30.90;35.50
23691;DHT22;43867;50.836;4.364;2022-08-14T08:07:13;30.70;35.90
23691;DHT22;43867;50.836;4.364;2022-08-14T08:09:43;31.00;35.70
23691;DHT22;43867;50.836;4.364;2022-08-14T08:12:13;31.20;35.70
23691;DHT22;43867;50.836;4.364;2022-08-14T08:14:40;31.60;35.40
23691;DHT22;43867;50.836;4.364;2022-08-14T08:17:08;31.70;34.80
23691;DHT22;43867;50.836;4.364;2022-08-14T08:19:34;31.80;34.90
23691;DHT22;43867;50.836;4.364;2022-08-14T08:22:02;31.50;34.80
23691;DHT22;43867;50.836;4.364;2022-08-14T08:24:28;31.30;35.60
23691;DHT22;43867;50.836;4.364;2022-08-14T08:26:53;31.00;36.00
23691;DHT22;43867;50.836;4.364;2022-08-14T08:29:20;31.30;35.10
23691;DHT22;43867;50.836;4.364;2022-08-14T08:31:46;31.30;34.90
23691;DHT22;43867;50.836;4.364;2022-08-14T08:34:13;31.40;34.90
23691;DHT22;43867;50.836;4.364;2022-08-14T08:36:40;31.80;35.50
23691;DHT22;43867;50.836;4.364;2022-08-14T08:39:06;31.90;34.70
23691;DHT22;43867;50.836;4.364;2022-08-14T08:41:38;32.00;34.20
23691;DHT22;43867;50.836;4.364;2022-08-14T08:44:04;31.90;34.20
23691;DHT22;43867;50.836;4.364;2022-08-14T08:46:29;31.60;34.20
23691;DHT22;43867;50.836;4.364;2022-08-14T08:48:55;31.40;34.60
23691;DHT22;43867;50.836;4.364;2022-08-14T08:54:06;30.90;34.80
23691;DHT22;43867;50.836;4.364;2022-08-14T08:59:00;30.60;35.40
23691;DHT22;43867;50.836;4.364;2022-08-14T09:01:26;30.50;35.50
23691;DHT22;43867;50.836;4.364;2022-08-14T09:04:00;30.70;35.50
23691;DHT22;43867;50.836;4.364;2022-08-14T09:06:25;30.70;35.70
23691;DHT22;43867;50.836;4.364;2022-08-14T09:08:51;31.00;36.30
23691;DHT22;43867;50.836;4.364;2022-08-14T09:11:16;30.90;36.20
23691;DHT22;43867;50.836;4.364;2022-08-14T09:13:42;30.90;35.80
23691;DHT22;43867;50.836;4.364;2022-08-14T09:16:08;30.80;36.20
23691;DHT22;43867;50.836;4.364;2022-08-14T09:18:34;30.70;35.60
23691;DHT22;43867;50.836;4.364;2022-08-14T09:21:00;30.80;35.30
23691;DHT22;43867;50.836;4.364;2022-08-14T09:23:25;30.60;35.00
23691;DHT22;43867;50.836;4.364;2022-08-14T09:25:51;30.70;35.50
23691;DHT22;43867;50.836;4.364;2022-08-14T09:28:18;30.40;35.20
23691;DHT22;43867;50.836;4.364;2022-08-14T09:30:47;30.20;35.70
23691;DHT22;43867;50.836;4.364;2022-08-14T09:45:47;30.20;35.40
23691;DHT22;43867;50.836;4.364;2022-08-14T09:48:17;30.10;35.80
23691;DHT22;43867;50.836;4.364;2022-08-14T09:50:53;30.10;36.00
23691;DHT22;43867;50.836;4.364;2022-08-14T09:53:38;30.20;36.30
23691;DHT22;43867;50.836;4.364;2022-08-14T09:56:06;30.60;35.70
23691;DHT22;43867;50.836;4.364;2022-08-14T09:58:49;30.70;36.10
23691;DHT22;43867;50.836;4.364;2022-08-14T10:01:16;30.70;36.60
23691;DHT22;43867;50.836;4.364;2022-08-14T10:03:54;30.90;36.50
23691;DHT22;43867;50.836;4.364;2022-08-14T10:06:24;31.10;36.50
23691;DHT22;43867;50.836;4.364;2022-08-14T10:08:52;31.40;36.60
23691;DHT22;43867;50.836;4.364;2022-08-14T10:11:27;31.70;35.80
23691;DHT22;43867;50.836;4.364;2022-08-14T10:14:21;31.80;36.30
23691;DHT22;43867;50.836;4.364;2022-08-14T10:16:50;31.90;36.30
23691;DHT22;43867;50.836;4.364;2022-08-14T10:19:18;31.70;36.20
23691;DHT22;43867;50.836;4.364;2022-08-14T10:21:54;31.40;35.60
23691;DHT22;43867;50.836;4.364;2022-08-14T10:24:24;31.60;35.70
23691;DHT22;43867;50.836;4.364;2022-08-14T10:26:53;31.60;34.50
23691;DHT22;43867;50.836;4.364;2022-08-14T10:29:28;31.40;34.40
23691;DHT22;43867;50.836;4.364;2022-08-14T10:31:57;31.10;35.20
23691;DHT22;43867;50.836;4.364;2022-08-14T10:34:28;31.20;34.50
23691;DHT22;43867;50.836;4.364;2022-08-14T10:37:00;31.30;34.60
23691;DHT22;43867;50.836;4.364;2022-08-14T10:39:26;31.60;33.90
23691;DHT22;43867;50.836;4.364;2022-08-14T10:41:59;31.70;33.80
23691;DHT22;43867;50.836;4.364;2022-08-14T10:44:34;31.60;33.40
23691;DHT22;43867;50.836;4.364;2022-08-14T10:47:01;31.70;33.10
23691;DHT22;43867;50.836;4.364;2022-08-14T10:49:54;31.70;32.30
23691;DHT22;43867;50.836;4.364;2022-08-14T10:52:24;31.40;32.40
23691;DHT22;43867;50.836;4.364;2022-08-14T10:54:50;31.20;33.00
23691;DHT22;43867;50.836;4.364;2022-08-14T10:57:21;31.20;32.70
23691;DHT22;43867;50.836;4.364;2022-08-14T10:59:58;31.20;33.50
23691;DHT22;43867;50.836;4.364;2022-08-14T11:02:26;31.40;33.20
23691;DHT22;43867;50.836;4.364;2022-08-14T11:05:03;31.40;32.10
23691;DHT22;43867;50.836;4.364;2022-08-14T11:07:29;31.50;32.30
23691;DHT22;43867;50.836;4.364;2022-08-14T11:09:56;31.50;31.40
23691;DHT22;43867;50.836;4.364;2022-08-14T11:12:25;31.40;31.80
23691;DHT22;43867;50.836;4.364;2022-08-14T11:14:55;31.40;33.50
23691;DHT22;43867;50.836;4.364;2022-08-14T11:17:25;31.60;31.00
23691;DHT22;43867;50.836;4.364;2022-08-14T11:19:51;31.60;31.60
23691;DHT22;43867;50.836;4.364;2022-08-14T11:22:19;31.30;31.50
23691;DHT22;43867;50.836;4.364;2022-08-14T11:24:46;31.20;31.70
23691;DHT22;43867;50.836;4.364;2022-08-14T11:27:13;31.40;32.20
23691;DHT22;43867;50.836;4.364;2022-08-14T11:29:40;31.20;31.60
23691;DHT22;43867;50.836;4.364;2022-08-14T11:32:06;31.00;32.10
23691;DHT22;43867;50.836;4.364;2022-08-14T11:34:35;31.10;32.40
23691;DHT22;43867;50.836;4.364;2022-08-14T11:37:10;31.30;32.40
23691;DHT22;43867;50.836;4.364;2022-08-14T11:39:35;31.40;31.50
23691;DHT22;43867;50.836;4.364;2022-08-14T11:42:02;31.40;31.60
23691;DHT22;43867;50.836;4.364;2022-08-14T11:44:28;31.50;31.00
23691;DHT22;43867;50.836;4.364;2022-08-14T11:46:53;31.50;31.20
23691;DHT22;43867;50.836;4.364;2022-08-14T11:49:25;31.70;31.60
23691;DHT22;43867;50.836;4.364;2022-08-14T11:51:52;31.70;31.00
23691;DHT22;43867;50.836;4.364;2022-08-14T11:54:18;31.80;31.50
23691;DHT22;43867;50.836;4.364;2022-08-14T11:56:44;31.90;31.00
23691;DHT22;43867;50.836;4.364;2022-08-14T11:59:17;32.10;31.10
23691;DHT22;43867;50.836;4.364;2022-08-14T12:01:43;32.00;30.80
23691;DHT22;43867;50.836;4.364;2022-08-14T12:04:19;31.90;31.00
23691;DHT22;43867;50.836;4.364;2022-08-14T12:06:54;32.00;30.80
23691;DHT22;43867;50.836;4.364;2022-08-14T12:09:35;32.00;31.00
23691;DHT22;43867;50.836;4.364;2022-08-14T12:12:12;32.10;30.40
23691;DHT22;43867;50.836;4.364;2022-08-14T12:14:50;31.90;30.20
23691;DHT22;43867;50.836;4.364;2022-08-14T12:17:22;31.90;30.50
23691;DHT22;43867;50.836;4.364;2022-08-14T12:19:54;31.80;30.00
23691;DHT22;43867;50.836;4.364;2022-08-14T12:25:08;31.80;30.40
23691;DHT22;43867;50.836;4.364;2022-08-14T12:27:38;32.10;30.00
23691;DHT22;43867;50.836;4.364;2022-08-14T12:30:04;32.10;30.00
23691;DHT22;43867;50.836;4.364;2022-08-14T12:32:37;32.10;29.40
23691;DHT22;43867;50.836;4.364;2022-08-14T12:35:03;32.00;29.50
23691;DHT22;43867;50.836;4.364;2022-08-14T12:37:29;32.10;29.70
23691;DHT22;43867;50.836;4.364;2022-08-14T12:40:07;32.10;28.80
23691;DHT22;43867;50.836;4.364;2022-08-14T12:42:33;32.10;29.00
23691;DHT22;43867;50.836;4.364;2022-08-14T12:44:59;32.20;28.90
23691;DHT22;43867;50.836;4.364;2022-08-14T12:47:25;32.30;29.10
23691;DHT22;43867;50.836;4.364;2022-08-14T12:49:53;32.30;28.70
23691;DHT22;43867;50.836;4.364;2022-08-14T12:52:52;32.30;28.70
23691;DHT22;43867;50.836;4.364;2022-08-14T12:55:15;32.20;28.90
23691;DHT22;43867;50.836;4.364;2022-08-14T12:57:46;32.10;28.80
23691;DHT22;43867;50.836;4.364;2022-08-14T13:00:15;32.30;29.20
23691;DHT22;43867;50.836;4.364;2022-08-14T13:02:44;32.30;28.90
23691;DHT22;43867;50.836;4.364;2022-08-14T13:05:10;32.20;28.90
23691;DHT22;43867;50.836;4.364;2022-08-14T13:07:37;31.80;29.10
23691;DHT22;43867;50.836;4.364;2022-08-14T13:10:04;32.00;29.40
23691;DHT22;43867;50.836;4.364;2022-08-14T13:12:30;32.10;29.60
23691;DHT22;43867;50.836;4.364;2022-08-14T13:14:56;32.10;29.60
23691;DHT22;43867;50.836;4.364;2022-08-14T13:17:23;32.10;29.70
23691;DHT22;43867;50.836;4.364;2022-08-14T13:19:54;32.10;29.70
23691;DHT22;43867;50.836;4.364;2022-08-14T13:22:24;32.30;29.80
23691;DHT22;43867;50.836;4.364;2022-08-14T13:24:51;32.10;30.10
23691;DHT22;43867;50.836;4.364;2022-08-14T13:27:18;32.10;30.00
23691;DHT22;43867;50.836;4.364;2022-08-14T13:29:44;32.10;29.90
23691;DHT22;43867;50.836;4.364;2022-08-14T13:32:11;32.30;29.80
23691;DHT22;43867;50.836;4.364;2022-08-14T13:34:37;32.50;29.60
23691;DHT22;43867;50.836;4.364;2022-08-14T13:37:04;32.40;29.80
23691;DHT22;43867;50.836;4.364;2022-08-14T13:39:31;32.30;29.90
23691;DHT22;43867;50.836;4.364;2022-08-14T13:41:56;32.50;29.90
23691;DHT22;43867;50.836;4.364;2022-08-14T13:44:28;32.80;29.90
23691;DHT22;43867;50.836;4.364;2022-08-14T13:47:00;32.70;29.80
23691;DHT22;43867;50.836;4.364;2022-08-14T13:49:25;32.60;29.80
23691;DHT22;43867;50.836;4.364;2022-08-14T13:51:51;32.70;29.90
23691;DHT22;43867;50.836;4.364;2022-08-14T13:54:18;32.90;29.60
23691;DHT22;43867;50.836;4.364;2022-08-14T13:56:46;32.90;29.50
23691;DHT22;43867;50.836;4.364;2022-08-14T13:59:13;32.90;29.50
23691;DHT22;43867;50.836;4.364;2022-08-14T14:01:39;33.00;29.40
23691;DHT22;43867;50.836;4.364;2022-08-14T14:04:08;33.20;29.60
23691;DHT22;43867;50.836;4.364;2022-08-14T14:06:37;33.40;29.20
23691;DHT22;43867;50.836;4.364;2022-08-14T14:09:03;33.20;29.10
23691;DHT22;43867;50.836;4.364;2022-08-14T14:11:30;32.70;29.30
23691;DHT22;43867;50.836;4.364;2022-08-14T14:13:56;32.70;29.50
23691;DHT22;43867;50.836;4.364;2022-08-14T14:16:24;32.90;29.40
23691;DHT22;43867;50.836;4.364;2022-08-14T14:18:51;33.10;28.90
23691;DHT22;43867;50.836;4.364;2022-08-14T14:21:20;33.20;28.90
23691;DHT22;43867;50.836;4.364;2022-08-14T14:23:48;33.40;28.40
23691;DHT22;43867;50.836;4.364;2022-08-14T14:26:14;33.60;28.80
23691;DHT22;43867;50.836;4.364;2022-08-14T14:28:41;33.60;28.70
23691;DHT22;43867;50.836;4.364;2022-08-14T14:31:07;33.50;28.50
23691;DHT22;43867;50.836;4.364;2022-08-14T14:33:33;33.40;28.40
23691;DHT22;43867;50.836;4.364;2022-08-14T14:35:59;33.40;28.80
23691;DHT22;43867;50.836;4.364;2022-08-14T14:38:25;33.30;28.80
23691;DHT22;43867;50.836;4.364;2022-08-14T14:40:56;33.20;28.70
23691;DHT22;43867;50.836;4.364;2022-08-14T14:43:22;33.40;28.70
23691;DHT22;43867;50.836;4.364;2022-08-14T14:45:51;33.60;28.60
23691;DHT22;43867;50.836;4.364;2022-08-14T14:48:18;33.70;28.60
23691;DHT22;43867;50.836;4.364;2022-08-14T14:50:44;33.90;28.70
23691;DHT22;43867;50.836;4.364;2022-08-14T14:53:10;33.90;28.70
23691;DHT22;43867;50.836;4.364;2022-08-14T14:55:37;33.80;28.90
23691;DHT22;43867;50.836;4.364;2022-08-14T14:58:04;33.80;29.00
23691;DHT22;43867;50.836;4.364;2022-08-14T15:00:31;33.60;29.00
23691;DHT22;43867;50.836;4.364;2022-08-14T15:02:56;33.90;29.00
23691;DHT22;43867;50.836;4.364;2022-08-14T15:05:22;33.70;29.00
23691;DHT22;43867;50.836;4.364;2022-08-14T15:07:49;33.90;28.80
23691;DHT22;43867;50.836;4.364;2022-08-14T15:10:19;33.60;29.10
23691;DHT22;43867;50.836;4.364;2022-08-14T15:12:45;33.10;29.30
23691;DHT22;43867;50.836;4.364;2022-08-14T15:15:10;33.20;29.60
23691;DHT22;43867;50.836;4.364;2022-08-14T15:17:39;33.10;29.70
23691;DHT22;43867;50.836;4.364;2022-08-14T15:20:05;33.10;29.60
23691;DHT22;43867;50.836;4.364;2022-08-14T15:22:35;33.00;29.50
23691;DHT22;43867;50.836;4.364;2022-08-14T15:25:03;33.20;29.30
23691;DHT22;43867;50.836;4.364;2022-08-14T15:27:28;33.20;29.10
23691;DHT22;43867;50.836;4.364;2022-08-14T15:29:56;33.10;28.90
23691;DHT22;43867;50.836;4.364;2022-08-14T15:32:22;33.00;28.70
23691;DHT22;43867;50.836;4.364;2022-08-14T15:34:47;33.20;29.10
23691;DHT22;43867;50.836;4.364;2022-08-14T15:37:13;33.10;28.80
23691;DHT22;43867;50.836;4.364;2022-08-14T15:39:38;32.90;28.90
23691;DHT22;43867;50.836;4.364;2022-08-14T15:42:05;32.70;28.50
23691;DHT22;43867;50.836;4.364;2022-08-14T15:44:30;32.70;29.00
23691;DHT22;43867;50.836;4.364;2022-08-14T15:46:57;32.70;29.00
23691;DHT22;43867;50.836;4.364;2022-08-14T15:49:24;32.60;29.00
23691;DHT22;43867;50.836;4.364;2022-08-14T15:51:55;32.80;29.00
23691;DHT22;43867;50.836;4.364;2022-08-14T15:54:27;32.80;28.80